METAR Data
IDs: Format: Raw Decoded Include TAF

Data at: 1345 UTC 26 Feb 2021

EGUN 261256Z 29009KT 9999 FEW034 10/05 A3061 RMK AO2A SLP369 T01030051 FZRANO